sensor_id;sensor_type;location;lat;lon;timestamp;pressure;altitude;pressure_sealevel;temperature;humidity
37291;BME280;23175;-33.706;151.094;2023-11-19T00:01:22;100294.15;;;19.26;40.79
37291;BME280;23175;-33.706;151.094;2023-11-19T00:03:52;100288.00;;;19.26;41.25
37291;BME280;23175;-33.706;151.094;2023-11-19T00:06:28;100283.52;;;17.78;43.53
37291;BME280;23175;-33.706;151.094;2023-11-19T00:08:58;100279.93;;;20.72;39.54
37291;BME280;23175;-33.706;151.094;2023-11-19T00:11:28;100280.53;;;18.59;41.52
37291;BME280;23175;-33.706;151.094;2023-11-19T00:13:58;100272.95;;;19.46;41.21
37291;BME280;23175;-33.706;151.094;2023-11-19T00:16:28;100269.29;;;20.25;39.68
37291;BME280;23175;-33.706;151.094;2023-11-19T00:18:58;100261.71;;;19.36;41.34
37291;BME280;23175;-33.706;151.094;2023-11-19T00:21:28;100257.27;;;18.22;42.18
37291;BME280;23175;-33.706;151.094;2023-11-19T00:23:59;100258.35;;;20.24;39.19
37291;BME280;23175;-33.706;151.094;2023-11-19T00:26:29;100253.62;;;20.04;39.44
37291;BME280;23175;-33.706;151.094;2023-11-19T00:28:58;100252.86;;;20.83;39.51
37291;BME280;23175;-33.706;151.094;2023-11-19T00:31:28;100250.92;;;19.84;39.55
37291;BME280;23175;-33.706;151.094;2023-11-19T00:33:59;100248.05;;;20.97;38.23
37291;BME280;23175;-33.706;151.094;2023-11-19T00:36:29;100245.62;;;19.48;39.79
37291;BME280;23175;-33.706;151.094;2023-11-19T00:39:05;100249.32;;;20.42;38.92
37291;BME280;23175;-33.706;151.094;2023-11-19T00:41:35;100250.44;;;18.83;40.86
37291;BME280;23175;-33.706;151.094;2023-11-19T00:44:06;100249.06;;;21.38;36.95
37291;BME280;23175;-33.706;151.094;2023-11-19T00:46:36;100235.95;;;19.38;38.06
37291;BME280;23175;-33.706;151.094;2023-11-19T00:49:07;100231.87;;;20.42;37.83
37291;BME280;23175;-33.706;151.094;2023-11-19T00:51:42;100228.26;;;21.06;36.37
37291;BME280;23175;-33.706;151.094;2023-11-19T00:54:12;100227.28;;;22.06;36.22
37291;BME280;23175;-33.706;151.094;2023-11-19T00:56:42;100224.98;;;20.04;37.24
37291;BME280;23175;-33.706;151.094;2023-11-19T00:59:13;100223.11;;;19.67;37.81
37291;BME280;23175;-33.706;151.094;2023-11-19T01:01:43;100228.13;;;19.71;38.41
37291;BME280;23175;-33.706;151.094;2023-11-19T01:04:13;100226.74;;;21.82;36.56
37291;BME280;23175;-33.706;151.094;2023-11-19T01:06:44;100221.10;;;22.87;33.76
37291;BME280;23175;-33.706;151.094;2023-11-19T01:09:13;100213.34;;;19.85;36.42
37291;BME280;23175;-33.706;151.094;2023-11-19T01:11:44;100213.58;;;21.05;36.02
37291;BME280;23175;-33.706;151.094;2023-11-19T01:14:13;100205.46;;;22.07;34.70
37291;BME280;23175;-33.706;151.094;2023-11-19T01:16:43;100203.33;;;21.32;35.36
37291;BME280;23175;-33.706;151.094;2023-11-19T01:19:13;100200.73;;;21.62;34.94
37291;BME280;23175;-33.706;151.094;2023-11-19T01:21:43;100200.80;;;23.00;33.79
37291;BME280;23175;-33.706;151.094;2023-11-19T01:24:14;100198.63;;;20.90;36.47
37291;BME280;23175;-33.706;151.094;2023-11-19T01:26:48;100191.06;;;22.13;35.58
37291;BME280;23175;-33.706;151.094;2023-11-19T01:29:18;100190.91;;;21.41;36.02
37291;BME280;23175;-33.706;151.094;2023-11-19T01:31:48;100191.14;;;22.16;36.21
37291;BME280;23175;-33.706;151.094;2023-11-19T01:34:19;100190.74;;;19.82;37.17
37291;BME280;23175;-33.706;151.094;2023-11-19T01:36:48;100187.84;;;22.26;35.08
37291;BME280;23175;-33.706;151.094;2023-11-19T01:39:18;100188.84;;;20.08;36.44
37291;BME280;23175;-33.706;151.094;2023-11-19T01:41:49;100183.62;;;19.84;36.70
37291;BME280;23175;-33.706;151.094;2023-11-19T01:44:19;100182.89;;;18.56;38.36
37291;BME280;23175;-33.706;151.094;2023-11-19T01:46:49;100173.83;;;21.72;35.95
37291;BME280;23175;-33.706;151.094;2023-11-19T01:49:20;100164.04;;;22.50;35.02
37291;BME280;23175;-33.706;151.094;2023-11-19T01:51:50;100162.45;;;19.90;37.83
37291;BME280;23175;-33.706;151.094;2023-11-19T01:54:21;100162.82;;;20.77;36.20
37291;BME280;23175;-33.706;151.094;2023-11-19T01:56:52;100149.46;;;21.00;35.23
37291;BME280;23175;-33.706;151.094;2023-11-19T01:59:23;100152.57;;;19.79;36.89
37291;BME280;23175;-33.706;151.094;2023-11-19T02:01:53;100146.50;;;19.75;37.77
37291;BME280;23175;-33.706;151.094;2023-11-19T02:04:23;100147.17;;;21.68;34.08
37291;BME280;23175;-33.706;151.094;2023-11-19T02:06:55;100146.50;;;19.80;36.69
37291;BME280;23175;-33.706;151.094;2023-11-19T02:09:31;100139.59;;;22.34;33.49
37291;BME280;23175;-33.706;151.094;2023-11-19T02:12:01;100135.47;;;21.02;35.84
37291;BME280;23175;-33.706;151.094;2023-11-19T02:14:36;100132.65;;;23.10;34.18
37291;BME280;23175;-33.706;151.094;2023-11-19T02:17:27;100126.68;;;24.26;31.93
37291;BME280;23175;-33.706;151.094;2023-11-19T02:19:58;100120.33;;;23.93;31.69
37291;BME280;23175;-33.706;151.094;2023-11-19T02:22:27;100116.56;;;23.48;32.59
37291;BME280;23175;-33.706;151.094;2023-11-19T02:25:04;100115.52;;;24.92;29.69
37291;BME280;23175;-33.706;151.094;2023-11-19T02:27:44;100108.85;;;22.13;31.53
37291;BME280;23175;-33.706;151.094;2023-11-19T02:30:16;100109.18;;;22.03;32.74
37291;BME280;23175;-33.706;151.094;2023-11-19T02:32:46;100104.75;;;23.69;31.24
37291;BME280;23175;-33.706;151.094;2023-11-19T02:35:21;100104.03;;;24.23;31.09
37291;BME280;23175;-33.706;151.094;2023-11-19T02:37:52;100097.41;;;22.59;31.05
37291;BME280;23175;-33.706;151.094;2023-11-19T02:40:22;100098.57;;;23.13;32.08
37291;BME280;23175;-33.706;151.094;2023-11-19T02:42:53;100100.52;;;24.31;30.91
37291;BME280;23175;-33.706;151.094;2023-11-19T02:45:23;100095.73;;;23.33;30.73
37291;BME280;23175;-33.706;151.094;2023-11-19T02:47:54;100087.62;;;22.50;32.29
37291;BME280;23175;-33.706;151.094;2023-11-19T02:50:24;100086.80;;;24.53;31.02
37291;BME280;23175;-33.706;151.094;2023-11-19T02:52:55;100077.72;;;21.90;34.71
37291;BME280;23175;-33.706;151.094;2023-11-19T02:55:26;100074.91;;;22.00;35.45
37291;BME280;23175;-33.706;151.094;2023-11-19T02:57:56;100069.45;;;23.03;33.76
37291;BME280;23175;-33.706;151.094;2023-11-19T03:00:26;100072.43;;;22.34;35.06
37291;BME280;23175;-33.706;151.094;2023-11-19T03:02:57;100063.02;;;24.34;32.95
37291;BME280;23175;-33.706;151.094;2023-11-19T03:05:28;100065.06;;;22.77;34.91
37291;BME280;23175;-33.706;151.094;2023-11-19T03:07:58;100057.44;;;21.77;35.78
37291;BME280;23175;-33.706;151.094;2023-11-19T03:10:28;100053.04;;;23.05;35.20
37291;BME280;23175;-33.706;151.094;2023-11-19T03:12:58;100055.10;;;20.84;36.96
37291;BME280;23175;-33.706;151.094;2023-11-19T03:15:33;100049.85;;;20.85;38.09
37291;BME280;23175;-33.706;151.094;2023-11-19T03:18:03;100038.42;;;22.57;36.95
37291;BME280;23175;-33.706;151.094;2023-11-19T03:20:33;100042.21;;;23.57;35.61
37291;BME280;23175;-33.706;151.094;2023-11-19T03:23:03;100040.22;;;24.04;34.50
37291;BME280;23175;-33.706;151.094;2023-11-19T03:25:34;100038.10;;;21.52;37.88
37291;BME280;23175;-33.706;151.094;2023-11-19T03:28:04;100035.88;;;21.10;39.16
37291;BME280;23175;-33.706;151.094;2023-11-19T03:30:34;100031.67;;;22.68;36.95
37291;BME280;23175;-33.706;151.094;2023-11-19T03:33:04;100037.93;;;22.63;37.67
37291;BME280;23175;-33.706;151.094;2023-11-19T03:35:40;100033.12;;;22.01;38.97
37291;BME280;23175;-33.706;151.094;2023-11-19T03:38:10;100032.75;;;22.87;38.46
37291;BME280;23175;-33.706;151.094;2023-11-19T03:40:40;100031.06;;;21.23;39.86
37291;BME280;23175;-33.706;151.094;2023-11-19T03:43:10;100028.06;;;18.69;43.31
37291;BME280;23175;-33.706;151.094;2023-11-19T03:45:40;100029.08;;;20.23;43.29
37291;BME280;23175;-33.706;151.094;2023-11-19T03:48:10;100019.95;;;21.62;41.84
37291;BME280;23175;-33.706;151.094;2023-11-19T03:50:40;100021.86;;;21.31;41.98
37291;BME280;23175;-33.706;151.094;2023-11-19T03:53:11;100014.59;;;20.21;42.66
37291;BME280;23175;-33.706;151.094;2023-11-19T03:55:45;100017.50;;;19.83;43.25
37291;BME280;23175;-33.706;151.094;2023-11-19T03:58:16;100007.75;;;20.19;42.32
37291;BME280;23175;-33.706;151.094;2023-11-19T04:00:46;100008.21;;;21.46;41.12
37291;BME280;23175;-33.706;151.094;2023-11-19T04:03:16;100008.25;;;19.54;44.21
37291;BME280;23175;-33.706;151.094;2023-11-19T04:05:46;100003.60;;;20.55;42.93
37291;BME280;23175;-33.706;151.094;2023-11-19T04:08:16;100000.22;;;19.52;44.54
37291;BME280;23175;-33.706;151.094;2023-11-19T04:10:46;100001.95;;;22.37;41.32
37291;BME280;23175;-33.706;151.094;2023-11-19T04:13:16;99999.40;;;21.44;42.81
37291;BME280;23175;-33.706;151.094;2023-11-19T04:15:46;100000.78;;;21.59;42.61
37291;BME280;23175;-33.706;151.094;2023-11-19T04:18:16;99992.97;;;21.59;42.12
37291;BME280;23175;-33.706;151.094;2023-11-19T04:20:46;99986.96;;;19.71;43.77
37291;BME280;23175;-33.706;151.094;2023-11-19T04:23:16;99980.99;;;22.13;41.65
37291;BME280;23175;-33.706;151.094;2023-11-19T04:25:46;99985.32;;;22.04;41.52
37291;BME280;23175;-33.706;151.094;2023-11-19T04:28:17;99977.08;;;20.47;43.41
37291;BME280;23175;-33.706;151.094;2023-11-19T04:30:46;99976.77;;;20.77;42.45
37291;BME280;23175;-33.706;151.094;2023-11-19T04:33:16;99973.21;;;21.61;42.05
37291;BME280;23175;-33.706;151.094;2023-11-19T04:35:46;99974.65;;;18.56;47.41
37291;BME280;23175;-33.706;151.094;2023-11-19T04:38:16;99966.87;;;19.71;45.95
37291;BME280;23175;-33.706;151.094;2023-11-19T04:40:48;99969.68;;;18.51;47.27
37291;BME280;23175;-33.706;151.094;2023-11-19T04:43:18;99960.51;;;21.07;44.83
37291;BME280;23175;-33.706;151.094;2023-11-19T04:45:48;99961.97;;;20.75;44.10
37291;BME280;23175;-33.706;151.094;2023-11-19T04:48:18;99954.13;;;19.25;46.51
37291;BME280;23175;-33.706;151.094;2023-11-19T04:50:48;99948.25;;;20.77;44.08
37291;BME280;23175;-33.706;151.094;2023-11-19T04:53:18;99944.01;;;21.29;43.31
37291;BME280;23175;-33.706;151.094;2023-11-19T04:55:48;99938.54;;;21.82;41.49
37291;BME280;23175;-33.706;151.094;2023-11-19T04:58:18;99936.40;;;22.06;41.09
37291;BME280;23175;-33.706;151.094;2023-11-19T05:00:49;99934.07;;;20.28;42.94
37291;BME280;23175;-33.706;151.094;2023-11-19T05:03:19;99935.69;;;20.19;43.23
37291;BME280;23175;-33.706;151.094;2023-11-19T05:05:49;99932.83;;;19.66;45.46
37291;BME280;23175;-33.706;151.094;2023-11-19T05:08:19;99935.85;;;19.07;45.76
37291;BME280;23175;-33.706;151.094;2023-11-19T05:10:51;99926.03;;;20.41;43.77
37291;BME280;23175;-33.706;151.094;2023-11-19T05:13:21;99931.36;;;19.79;45.55
37291;BME280;23175;-33.706;151.094;2023-11-19T05:15:53;99920.54;;;19.82;44.54
37291;BME280;23175;-33.706;151.094;2023-11-19T05:18:23;99917.27;;;19.04;45.26
37291;BME280;23175;-33.706;151.094;2023-11-19T05:20:53;99910.19;;;20.78;44.24
37291;BME280;23175;-33.706;151.094;2023-11-19T05:23:24;99905.49;;;20.88;43.33
37291;BME280;23175;-33.706;151.094;2023-11-19T05:25:54;99907.24;;;20.10;44.07
37291;BME280;23175;-33.706;151.094;2023-11-19T05:28:24;99896.59;;;19.41;45.75
37291;BME280;23175;-33.706;151.094;2023-11-19T05:30:54;99899.03;;;20.42;43.94
37291;BME280;23175;-33.706;151.094;2023-11-19T05:33:24;99894.11;;;19.56;45.44
37291;BME280;23175;-33.706;151.094;2023-11-19T05:35:59;99904.14;;;18.04;47.75
37291;BME280;23175;-33.706;151.094;2023-11-19T05:38:29;99893.85;;;17.98;49.01
37291;BME280;23175;-33.706;151.094;2023-11-19T05:41:00;99888.19;;;18.62;48.15
37291;BME280;23175;-33.706;151.094;2023-11-19T05:43:30;99888.10;;;19.14;48.40
37291;BME280;23175;-33.706;151.094;2023-11-19T05:46:01;99886.02;;;19.75;46.87
37291;BME280;23175;-33.706;151.094;2023-11-19T05:48:32;99879.79;;;20.46;46.35
37291;BME280;23175;-33.706;151.094;2023-11-19T05:51:02;99874.46;;;20.62;45.48
37291;BME280;23175;-33.706;151.094;2023-11-19T05:53:32;99864.33;;;19.20;47.40
37291;BME280;23175;-33.706;151.094;2023-11-19T05:56:02;99872.32;;;20.86;45.26
37291;BME280;23175;-33.706;151.094;2023-11-19T05:58:32;99875.71;;;19.91;46.38
37291;BME280;23175;-33.706;151.094;2023-11-19T06:01:03;99864.01;;;19.76;47.01
37291;BME280;23175;-33.706;151.094;2023-11-19T06:03:34;99863.02;;;19.90;47.09
37291;BME280;23175;-33.706;151.094;2023-11-19T06:06:05;99877.93;;;19.54;46.74
37291;BME280;23175;-33.706;151.094;2023-11-19T06:08:35;99868.18;;;20.45;45.15
37291;BME280;23175;-33.706;151.094;2023-11-19T06:11:05;99869.99;;;20.78;45.33
37291;BME280;23175;-33.706;151.094;2023-11-19T06:13:36;99862.50;;;20.14;46.53
37291;BME280;23175;-33.706;151.094;2023-11-19T06:16:07;99861.37;;;19.36;46.90
37291;BME280;23175;-33.706;151.094;2023-11-19T06:18:38;99867.02;;;20.43;45.92
37291;BME280;23175;-33.706;151.094;2023-11-19T06:21:09;99871.53;;;18.97;47.52
37291;BME280;23175;-33.706;151.094;2023-11-19T06:23:40;99866.33;;;17.82;50.27
37291;BME280;23175;-33.706;151.094;2023-11-19T06:26:10;99865.30;;;18.21;50.28
37291;BME280;23175;-33.706;151.094;2023-11-19T06:28:40;99864.18;;;19.16;48.94
37291;BME280;23175;-33.706;151.094;2023-11-19T06:31:10;99861.75;;;18.40;48.58
37291;BME280;23175;-33.706;151.094;2023-11-19T06:33:40;99859.37;;;18.85;48.28
37291;BME280;23175;-33.706;151.094;2023-11-19T06:36:13;99867.35;;;18.71;47.90
37291;BME280;23175;-33.706;151.094;2023-11-19T06:38:43;99874.40;;;19.16;47.37
37291;BME280;23175;-33.706;151.094;2023-11-19T06:41:14;99871.15;;;17.19;49.99
37291;BME280;23175;-33.706;151.094;2023-11-19T06:43:44;99876.97;;;18.53;48.87
37291;BME280;23175;-33.706;151.094;2023-11-19T06:46:18;99871.87;;;17.50;50.71
37291;BME280;23175;-33.706;151.094;2023-11-19T06:48:49;99875.17;;;18.54;49.43
37291;BME280;23175;-33.706;151.094;2023-11-19T06:51:19;99876.64;;;17.77;50.70
37291;BME280;23175;-33.706;151.094;2023-11-19T06:53:49;99862.80;;;17.93;51.04
37291;BME280;23175;-33.706;151.094;2023-11-19T06:56:21;99865.29;;;18.40;51.13
37291;BME280;23175;-33.706;151.094;2023-11-19T06:58:52;99865.05;;;17.65;52.06
37291;BME280;23175;-33.706;151.094;2023-11-19T07:01:23;99863.23;;;17.85;51.26
37291;BME280;23175;-33.706;151.094;2023-11-19T07:03:53;99868.02;;;18.99;49.63
37291;BME280;23175;-33.706;151.094;2023-11-19T07:06:23;99870.77;;;18.76;49.52
37291;BME280;23175;-33.706;151.094;2023-11-19T07:08:54;99873.55;;;19.05;49.21
37291;BME280;23175;-33.706;151.094;2023-11-19T07:11:25;99874.20;;;18.07;49.83
37291;BME280;23175;-33.706;151.094;2023-11-19T07:13:55;99878.43;;;17.86;51.25
37291;BME280;23175;-33.706;151.094;2023-11-19T07:16:25;99874.83;;;18.89;50.37
37291;BME280;23175;-33.706;151.094;2023-11-19T07:18:55;99880.75;;;20.18;48.12
37291;BME280;23175;-33.706;151.094;2023-11-19T07:21:26;99885.78;;;18.37;50.46
37291;BME280;23175;-33.706;151.094;2023-11-19T07:23:56;99889.64;;;17.12;53.35
37291;BME280;23175;-33.706;151.094;2023-11-19T07:26:26;99897.56;;;17.62;53.06
37291;BME280;23175;-33.706;151.094;2023-11-19T07:28:56;99902.56;;;18.64;50.22
37291;BME280;23175;-33.706;151.094;2023-11-19T07:31:27;99902.27;;;18.28;50.63
37291;BME280;23175;-33.706;151.094;2023-11-19T07:33:57;99902.57;;;18.29;51.01
37291;BME280;23175;-33.706;151.094;2023-11-19T07:36:28;99904.39;;;18.06;51.67
37291;BME280;23175;-33.706;151.094;2023-11-19T07:38:58;99907.40;;;17.16;52.62
37291;BME280;23175;-33.706;151.094;2023-11-19T07:41:28;99909.26;;;18.38;50.48
37291;BME280;23175;-33.706;151.094;2023-11-19T07:43:59;99915.12;;;17.49;52.80
37291;BME280;23175;-33.706;151.094;2023-11-19T07:46:30;99916.86;;;17.42;51.74
37291;BME280;23175;-33.706;151.094;2023-11-19T07:49:01;99919.78;;;18.62;49.75
37291;BME280;23175;-33.706;151.094;2023-11-19T07:51:31;99932.27;;;16.54;53.33
37291;BME280;23175;-33.706;151.094;2023-11-19T07:54:02;99940.48;;;17.68;52.48
37291;BME280;23175;-33.706;151.094;2023-11-19T07:56:32;99938.50;;;16.76;54.30
37291;BME280;23175;-33.706;151.094;2023-11-19T07:59:03;99947.69;;;17.35;53.99
37291;BME280;23175;-33.706;151.094;2023-11-19T08:01:33;99950.87;;;17.15;54.50
37291;BME280;23175;-33.706;151.094;2023-11-19T08:04:04;99959.64;;;16.43;55.56
37291;BME280;23175;-33.706;151.094;2023-11-19T08:06:35;99963.25;;;16.44;55.94
37291;BME280;23175;-33.706;151.094;2023-11-19T08:09:06;99962.12;;;18.31;52.87
37291;BME280;23175;-33.706;151.094;2023-11-19T08:11:37;99962.17;;;16.16;55.31
37291;BME280;23175;-33.706;151.094;2023-11-19T08:14:08;99958.04;;;17.63;53.30
37291;BME280;23175;-33.706;151.094;2023-11-19T08:16:39;99958.52;;;16.45;55.32
37291;BME280;23175;-33.706;151.094;2023-11-19T08:19:11;99959.55;;;18.56;52.18
37291;BME280;23175;-33.706;151.094;2023-11-19T08:21:41;99970.95;;;19.01;51.13
37291;BME280;23175;-33.706;151.094;2023-11-19T08:24:12;99969.14;;;17.93;52.86
37291;BME280;23175;-33.706;151.094;2023-11-19T08:26:42;99975.20;;;17.24;54.40
37291;BME280;23175;-33.706;151.094;2023-11-19T08:29:12;99982.28;;;15.26;58.78
37291;BME280;23175;-33.706;151.094;2023-11-19T08:31:42;99982.94;;;16.91;55.40
37291;BME280;23175;-33.706;151.094;2023-11-19T08:34:13;99989.94;;;18.50;51.59
37291;BME280;23175;-33.706;151.094;2023-11-19T08:36:44;99993.48;;;18.47;51.67
37291;BME280;23175;-33.706;151.094;2023-11-19T08:39:16;100000.17;;;16.94;54.44
37291;BME280;23175;-33.706;151.094;2023-11-19T08:41:46;100001.94;;;16.95;55.54
37291;BME280;23175;-33.706;151.094;2023-11-19T08:44:16;100005.59;;;16.27;55.55
37291;BME280;23175;-33.706;151.094;2023-11-19T08:46:49;100009.15;;;15.96;57.37
37291;BME280;23175;-33.706;151.094;2023-11-19T08:49:21;100009.71;;;16.20;58.73
37291;BME280;23175;-33.706;151.094;2023-11-19T08:51:52;100019.26;;;14.98;60.34
37291;BME280;23175;-33.706;151.094;2023-11-19T08:54:23;100023.55;;;15.73;61.43
37291;BME280;23175;-33.706;151.094;2023-11-19T08:56:53;100025.28;;;15.69;60.08
37291;BME280;23175;-33.706;151.094;2023-11-19T08:59:24;100027.41;;;15.76;59.91
37291;BME280;23175;-33.706;151.094;2023-11-19T09:01:54;100029.62;;;15.67;58.97
37291;BME280;23175;-33.706;151.094;2023-11-19T09:04:25;100034.92;;;15.29;61.44
37291;BME280;23175;-33.706;151.094;2023-11-19T09:06:57;100032.67;;;15.34;60.39
37291;BME280;23175;-33.706;151.094;2023-11-19T09:09:27;100034.40;;;16.32;59.33
37291;BME280;23175;-33.706;151.094;2023-11-19T09:11:59;100036.05;;;15.81;58.94
37291;BME280;23175;-33.706;151.094;2023-11-19T09:14:35;100036.74;;;17.08;55.95
37291;BME280;23175;-33.706;151.094;2023-11-19T09:17:06;100042.77;;;16.09;58.00
37291;BME280;23175;-33.706;151.094;2023-11-19T09:19:37;100041.12;;;15.40;61.21
37291;BME280;23175;-33.706;151.094;2023-11-19T09:22:10;100042.30;;;15.13;62.06
37291;BME280;23175;-33.706;151.094;2023-11-19T09:24:40;100047.35;;;16.70;57.89
37291;BME280;23175;-33.706;151.094;2023-11-19T09:27:11;100047.76;;;15.02;62.54
37291;BME280;23175;-33.706;151.094;2023-11-19T09:29:41;100046.80;;;15.50;61.65
37291;BME280;23175;-33.706;151.094;2023-11-19T09:32:12;100047.73;;;15.01;63.78
37291;BME280;23175;-33.706;151.094;2023-11-19T09:34:42;100042.22;;;17.49;57.96
37291;BME280;23175;-33.706;151.094;2023-11-19T09:37:13;100049.21;;;14.68;63.52
37291;BME280;23175;-33.706;151.094;2023-11-19T09:39:43;100046.64;;;16.74;58.60
37291;BME280;23175;-33.706;151.094;2023-11-19T09:42:14;100046.80;;;16.41;58.56
37291;BME280;23175;-33.706;151.094;2023-11-19T09:44:45;100051.20;;;16.02;60.47
37291;BME280;23175;-33.706;151.094;2023-11-19T09:47:18;100049.37;;;14.67;63.65
37291;BME280;23175;-33.706;151.094;2023-11-19T09:49:50;100036.75;;;17.38;57.75
37291;BME280;23175;-33.706;151.094;2023-11-19T09:52:22;100035.75;;;17.60;56.93
37291;BME280;23175;-33.706;151.094;2023-11-19T09:54:53;100032.56;;;16.45;57.31
37291;BME280;23175;-33.706;151.094;2023-11-19T09:57:23;100034.24;;;15.26;60.30
37291;BME280;23175;-33.706;151.094;2023-11-19T09:59:55;100030.67;;;15.57;60.99
37291;BME280;23175;-33.706;151.094;2023-11-19T10:02:25;100026.91;;;16.17;58.65
37291;BME280;23175;-33.706;151.094;2023-11-19T10:04:57;100027.35;;;18.02;54.74
37291;BME280;23175;-33.706;151.094;2023-11-19T10:07:29;100038.26;;;17.58;55.48
37291;BME280;23175;-33.706;151.094;2023-11-19T10:09:59;100041.72;;;18.05;52.49
37291;BME280;23175;-33.706;151.094;2023-11-19T10:12:30;100050.64;;;19.80;49.17
37291;BME280;23175;-33.706;151.094;2023-11-19T10:15:01;100056.29;;;16.25;55.89
37291;BME280;23175;-33.706;151.094;2023-11-19T10:17:35;100063.47;;;16.52;56.47
37291;BME280;23175;-33.706;151.094;2023-11-19T10:20:07;100071.30;;;16.54;56.00
37291;BME280;23175;-33.706;151.094;2023-11-19T10:22:39;100075.59;;;19.04;51.36
37291;BME280;23175;-33.706;151.094;2023-11-19T10:25:31;100081.43;;;17.89;53.26
37291;BME280;23175;-33.706;151.094;2023-11-19T10:28:03;100087.37;;;20.50;48.29
37291;BME280;23175;-33.706;151.094;2023-11-19T10:30:34;100086.87;;;20.82;47.74
37291;BME280;23175;-33.706;151.094;2023-11-19T10:33:07;100089.36;;;17.27;52.19
37291;BME280;23175;-33.706;151.094;2023-11-19T10:35:50;100094.67;;;20.60;47.58
37291;BME280;23175;-33.706;151.094;2023-11-19T10:38:22;100099.24;;;16.72;52.71
37291;BME280;23175;-33.706;151.094;2023-11-19T10:40:53;100100.29;;;16.91;53.92
37291;BME280;23175;-33.706;151.094;2023-11-19T10:43:24;100103.05;;;15.67;57.22
37291;BME280;23175;-33.706;151.094;2023-11-19T10:45:55;100094.32;;;17.29;54.53
37291;BME280;23175;-33.706;151.094;2023-11-19T10:48:40;100092.02;;;17.17;55.48
37291;BME280;23175;-33.706;151.094;2023-11-19T10:51:11;100091.02;;;16.49;56.18
37291;BME280;23175;-33.706;151.094;2023-11-19T10:53:44;100085.88;;;18.65;53.25
37291;BME280;23175;-33.706;151.094;2023-11-19T10:56:18;100083.01;;;18.24;54.05
37291;BME280;23175;-33.706;151.094;2023-11-19T10:58:52;100087.86;;;17.94;53.05
37291;BME280;23175;-33.706;151.094;2023-11-19T11:01:26;100092.92;;;18.77;53.07
37291;BME280;23175;-33.706;151.094;2023-11-19T11:04:01;100093.99;;;17.74;54.78
37291;BME280;23175;-33.706;151.094;2023-11-19T11:06:31;100099.98;;;16.65;56.61
37291;BME280;23175;-33.706;151.094;2023-11-19T11:09:04;100103.53;;;16.93;56.52
37291;BME280;23175;-33.706;151.094;2023-11-19T11:11:35;100106.05;;;17.90;54.55
37291;BME280;23175;-33.706;151.094;2023-11-19T11:14:06;100109.14;;;18.64;54.18
37291;BME280;23175;-33.706;151.094;2023-11-19T11:16:39;100111.38;;;18.18;54.99
37291;BME280;23175;-33.706;151.094;2023-11-19T11:19:12;100115.68;;;15.22;59.65
37291;BME280;23175;-33.706;151.094;2023-11-19T11:21:48;100115.83;;;17.04;56.61
37291;BME280;23175;-33.706;151.094;2023-11-19T11:25:14;100110.78;;;18.91;51.96
37291;BME280;23175;-33.706;151.094;2023-11-19T11:28:05;100111.78;;;21.01;47.85
37291;BME280;23175;-33.706;151.094;2023-11-19T11:30:49;100113.60;;;19.41;51.25
37291;BME280;23175;-33.706;151.094;2023-11-19T11:33:35;100116.06;;;20.51;48.35
37291;BME280;23175;-33.706;151.094;2023-11-19T11:36:20;100109.51;;;22.03;45.38
37291;BME280;23175;-33.706;151.094;2023-11-19T11:38:52;100108.83;;;21.97;45.10
37291;BME280;23175;-33.706;151.094;2023-11-19T11:41:24;100106.44;;;22.42;43.88
37291;BME280;23175;-33.706;151.094;2023-11-19T11:43:56;100099.73;;;21.75;45.53
37291;BME280;23175;-33.706;151.094;2023-11-19T11:47:00;100099.09;;;22.99;43.51
37291;BME280;23175;-33.706;151.094;2023-11-19T11:49:32;100102.18;;;21.81;44.21
37291;BME280;23175;-33.706;151.094;2023-11-19T11:52:06;100103.99;;;22.57;43.00
37291;BME280;23175;-33.706;151.094;2023-11-19T11:54:36;100103.37;;;22.92;42.84
37291;BME280;23175;-33.706;151.094;2023-11-19T11:57:12;100106.72;;;22.46;42.99
37291;BME280;23175;-33.706;151.094;2023-11-19T11:59:50;100111.69;;;22.61;42.83
37291;BME280;23175;-33.706;151.094;2023-11-19T12:02:21;100109.36;;;22.09;43.58
37291;BME280;23175;-33.706;151.094;2023-11-19T12:04:53;100106.35;;;22.41;43.08
37291;BME280;23175;-33.706;151.094;2023-11-19T12:07:24;100109.02;;;22.75;43.11
37291;BME280;23175;-33.706;151.094;2023-11-19T12:10:06;100111.06;;;22.33;43.17
37291;BME280;23175;-33.706;151.094;2023-11-19T12:12:38;100105.83;;;22.48;42.89
37291;BME280;23175;-33.706;151.094;2023-11-19T12:15:11;100099.84;;;22.74;43.00
37291;BME280;23175;-33.706;151.094;2023-11-19T12:17:48;100099.02;;;21.77;44.38
37291;BME280;23175;-33.706;151.094;2023-11-19T12:20:21;100094.94;;;22.71;43.03
37291;BME280;23175;-33.706;151.094;2023-11-19T12:22:52;100094.70;;;22.57;43.26
37291;BME280;23175;-33.706;151.094;2023-11-19T12:25:22;100091.44;;;22.04;43.66
37291;BME280;23175;-33.706;151.094;2023-11-19T12:27:52;100085.38;;;22.75;42.94
37291;BME280;23175;-33.706;151.094;2023-11-19T12:30:29;100082.55;;;22.01;43.55
37291;BME280;23175;-33.706;151.094;2023-11-19T12:32:58;100073.74;;;22.54;43.18
37291;BME280;23175;-33.706;151.094;2023-11-19T12:35:28;100064.70;;;21.46;45.45
37291;BME280;23175;-33.706;151.094;2023-11-19T12:37:59;100063.19;;;20.26;47.13
37291;BME280;23175;-33.706;151.094;2023-11-19T12:40:29;100060.65;;;20.53;46.54
37291;BME280;23175;-33.706;151.094;2023-11-19T12:42:59;100062.80;;;19.88;47.95
37291;BME280;23175;-33.706;151.094;2023-11-19T12:45:36;100061.62;;;21.48;45.67